createdAt,value
2018-09-20T00:00:34.476Z,15.73
2018-09-20T00:01:34.553Z,15.70
2018-09-20T00:02:34.457Z,15.70
2018-09-20T00:03:34.437Z,15.64
2018-09-20T00:04:34.426Z,15.61
2018-09-20T00:05:34.421Z,15.58
2018-09-20T00:06:34.412Z,15.62
2018-09-20T00:07:34.393Z,15.54
2018-09-20T00:08:34.391Z,15.54
2018-09-20T00:09:34.375Z,15.55
2018-09-20T00:10:34.367Z,15.54
2018-09-20T00:11:34.622Z,15.62
2018-09-20T00:12:34.337Z,15.51
2018-09-20T00:13:34.347Z,15.47
2018-09-20T00:14:34.314Z,15.54
2018-09-20T00:15:34.310Z,15.52
2018-09-20T00:16:34.325Z,15.51
2018-09-20T00:17:34.554Z,15.52
2018-09-20T00:18:34.279Z,15.52
2018-09-20T00:19:34.645Z,15.51
2018-09-20T00:20:34.263Z,15.49
2018-09-20T00:21:34.242Z,15.52
2018-09-20T00:22:34.247Z,15.51
2018-09-20T00:23:34.221Z,15.49
2018-09-20T00:24:34.203Z,15.54
2018-09-20T00:25:34.201Z,15.47
2018-09-20T00:26:34.195Z,15.40
2018-09-20T00:27:34.191Z,15.36
2018-09-20T00:28:34.188Z,15.47
2018-09-20T00:29:34.153Z,15.42
2018-09-20T00:30:34.144Z,15.42
2018-09-20T00:31:34.154Z,15.36
2018-09-20T00:32:34.239Z,15.31
2018-09-20T00:33:34.107Z,15.40
2018-09-20T00:34:34.111Z,15.42
2018-09-20T00:35:34.088Z,15.29
2018-09-20T00:36:34.075Z,15.33
2018-09-20T00:37:34.064Z,15.36
2018-09-20T00:38:34.331Z,15.33
2018-09-20T00:39:34.038Z,15.29
2018-09-20T00:40:34.033Z,15.29
2018-09-20T00:41:34.115Z,15.31
2018-09-20T00:42:34.005Z,15.33
2018-09-20T00:43:34.003Z,15.29
2018-09-20T00:44:34.262Z,15.33
2018-09-20T00:45:34.233Z,15.25
2018-09-20T00:46:34.261Z,15.24
2018-09-20T00:47:33.964Z,15.22
2018-09-20T00:48:33.951Z,15.36
2018-09-20T00:49:33.931Z,15.36
2018-09-20T00:50:34.193Z,15.35
2018-09-20T00:51:33.909Z,15.40
2018-09-20T00:52:34.324Z,15.21
2018-09-20T00:53:33.883Z,15.25
2018-09-20T00:54:33.982Z,15.19
2018-09-20T00:55:34.164Z,15.27
2018-09-20T00:56:33.852Z,15.27
2018-09-20T00:57:33.841Z,15.25
2018-09-20T00:58:33.829Z,15.27
2018-09-20T00:59:33.817Z,15.24
2018-09-20T01:00:33.816Z,15.24
2018-09-20T01:01:33.812Z,15.22
2018-09-20T01:02:33.784Z,15.17
2018-09-20T01:03:33.793Z,15.07
2018-09-20T01:04:33.765Z,15.14
2018-09-20T01:05:33.754Z,15.10
2018-09-20T01:06:33.742Z,15.06
2018-09-20T01:07:33.728Z,15.03
2018-09-20T01:08:33.811Z,15.14
2018-09-20T01:09:33.706Z,15.06
2018-09-20T01:10:33.708Z,15.11
2018-09-20T01:11:33.699Z,15.04
2018-09-20T01:12:33.940Z,15.04
2018-09-20T01:13:33.929Z,15.02
2018-09-20T01:14:33.694Z,15.03
2018-09-20T01:15:33.643Z,15.04
2018-09-20T01:16:33.628Z,15.02
2018-09-20T01:17:33.641Z,15.07
2018-09-20T01:18:33.607Z,15.06
2018-09-20T01:19:33.597Z,15.06
2018-09-20T01:20:33.597Z,15.02
2018-09-20T01:21:33.700Z,15.03
2018-09-20T01:22:33.827Z,15.09
2018-09-20T01:23:33.575Z,15.04
2018-09-20T01:24:33.541Z,15.02
2018-09-20T01:25:33.532Z,15.07
2018-09-20T01:26:33.517Z,15.00
2018-09-20T01:27:33.512Z,15.06
2018-09-20T01:28:33.502Z,15.02
2018-09-20T01:29:33.489Z,15.03
2018-09-20T01:30:33.740Z,15.10
2018-09-20T01:31:33.626Z,15.00
2018-09-20T01:32:33.456Z,15.07
2018-09-20T01:33:33.444Z,15.04
2018-09-20T01:34:33.438Z,15.06
2018-09-20T01:35:33.503Z,15.06
2018-09-20T01:36:33.414Z,15.07
2018-09-20T01:37:33.410Z,15.18
2018-09-20T01:38:33.393Z,15.19
2018-09-20T01:39:33.763Z,15.24
2018-09-20T01:40:33.363Z,15.21
2018-09-20T01:41:33.477Z,15.19
2018-09-20T01:42:33.355Z,15.27
2018-09-20T01:43:33.326Z,15.18
2018-09-20T01:44:33.606Z,15.21
2018-09-20T01:45:33.314Z,15.19
2018-09-20T01:46:33.301Z,15.21
2018-09-20T01:47:33.549Z,15.18
2018-09-20T01:48:33.279Z,15.21
2018-09-20T01:49:33.264Z,15.18
2018-09-20T01:50:33.269Z,15.11
2018-09-20T01:51:33.264Z,15.18
2018-09-20T01:52:33.230Z,15.04
2018-09-20T01:53:33.224Z,15.06
2018-09-20T01:54:33.209Z,15.07
2018-09-20T01:55:33.197Z,15.04
2018-09-20T01:56:33.187Z,15.03
2018-09-20T01:57:33.175Z,14.99
2018-09-20T01:58:33.187Z,15.07
2018-09-20T01:59:33.155Z,15.02
2018-09-20T02:00:33.146Z,15.03
2018-09-20T02:01:33.134Z,15.03
2018-09-20T02:02:33.123Z,15.02
2018-09-20T02:03:33.105Z,15.03
2018-09-20T02:04:33.096Z,15.09
2018-09-20T02:05:33.090Z,15.04
2018-09-20T02:06:33.077Z,15.06
2018-09-20T02:07:33.079Z,15.03
2018-09-20T02:08:33.100Z,15.09
2018-09-20T02:09:33.049Z,15.06
2018-09-20T02:10:33.032Z,14.97
2018-09-20T02:11:33.020Z,15.03
2018-09-20T02:12:33.006Z,15.02
2018-09-20T02:13:32.996Z,15.03
2018-09-20T02:14:32.987Z,14.96
2018-09-20T02:15:33.234Z,14.97
2018-09-20T02:16:32.989Z,14.96
2018-09-20T02:17:33.088Z,14.85
2018-09-20T02:18:32.942Z,14.89
2018-09-20T02:19:33.052Z,14.84
2018-09-20T02:20:32.917Z,14.81
2018-09-20T02:21:33.175Z,14.79
2018-09-20T02:22:32.899Z,14.72
2018-09-20T02:23:32.894Z,14.72
2018-09-20T02:24:32.889Z,14.69
2018-09-20T02:25:32.876Z,14.72
2018-09-20T02:26:32.865Z,14.72
2018-09-20T02:27:32.852Z,14.66
2018-09-20T02:28:32.832Z,14.65
2018-09-20T02:29:32.829Z,14.66
2018-09-20T02:30:33.088Z,14.68
2018-09-20T02:31:32.806Z,14.68
2018-09-20T02:32:32.785Z,14.78
2018-09-20T02:33:32.779Z,14.68
2018-09-20T02:34:33.060Z,14.77
2018-09-20T02:35:32.783Z,14.72
2018-09-20T02:36:32.766Z,14.78
2018-09-20T02:37:32.735Z,14.81
2018-09-20T02:38:32.983Z,14.72
2018-09-20T02:39:32.730Z,14.72
2018-09-20T02:40:32.709Z,14.70
2018-09-20T02:41:32.686Z,14.88
2018-09-20T02:42:32.677Z,14.85
2018-09-20T02:43:32.929Z,14.72
2018-09-20T02:44:32.662Z,14.82
2018-09-20T02:45:32.650Z,14.77
2018-09-20T02:46:32.642Z,14.78
2018-09-20T02:47:32.623Z,14.84
2018-09-20T02:48:32.611Z,14.86
2018-09-20T02:49:32.612Z,14.73
2018-09-20T02:50:34.433Z,14.68
2018-09-20T02:51:32.574Z,14.70
2018-09-20T02:52:32.671Z,14.73
2018-09-20T02:53:32.826Z,14.68
2018-09-20T02:54:32.561Z,14.69
2018-09-20T02:55:32.555Z,14.63
2018-09-20T02:56:32.526Z,14.66
2018-09-20T02:57:32.787Z,14.66
2018-09-20T02:58:32.498Z,14.65
2018-09-20T02:59:32.503Z,14.63
2018-09-20T03:00:32.483Z,14.60
2018-09-20T03:01:32.469Z,14.55
2018-09-20T03:02:32.504Z,14.58
2018-09-20T03:03:32.450Z,14.53
2018-09-20T03:04:32.429Z,14.50
2018-09-20T03:05:32.688Z,14.50
2018-09-20T03:06:32.414Z,14.51
2018-09-20T03:07:32.664Z,14.51
2018-09-20T03:08:32.396Z,14.62
2018-09-20T03:09:32.378Z,14.62
2018-09-20T03:10:32.373Z,14.65
2018-09-20T03:11:32.626Z,14.65
2018-09-20T03:12:32.355Z,14.66
2018-09-20T03:13:32.331Z,14.62
2018-09-20T03:14:32.580Z,14.59
2018-09-20T03:15:32.393Z,14.55
2018-09-20T03:16:32.299Z,14.62
2018-09-20T03:17:32.300Z,14.66
2018-09-20T03:18:32.274Z,14.59
2018-09-20T03:19:32.268Z,14.58
2018-09-20T03:20:32.360Z,14.50
2018-09-20T03:21:32.246Z,14.54
2018-09-20T03:22:32.235Z,14.48
2018-09-20T03:23:32.485Z,14.53
2018-09-20T03:24:32.210Z,14.50
2018-09-20T03:25:32.202Z,14.53
2018-09-20T03:26:32.197Z,14.47
2018-09-20T03:27:32.434Z,14.51
2018-09-20T03:28:32.245Z,14.48
2018-09-20T03:29:32.164Z,14.47
2018-09-20T03:30:32.453Z,14.44
2018-09-20T03:31:32.149Z,14.44
2018-09-20T03:32:32.122Z,14.50
2018-09-20T03:33:32.109Z,14.41
2018-09-20T03:34:32.448Z,14.51
2018-09-20T03:35:32.092Z,14.50
2018-09-20T03:36:32.082Z,14.51
2018-09-20T03:37:32.067Z,14.43
2018-09-20T03:38:32.054Z,14.41
2018-09-20T03:39:32.043Z,14.43
2018-09-20T03:40:32.046Z,14.40
2018-09-20T03:41:32.024Z,14.44
2018-09-20T03:42:32.329Z,14.41
2018-09-20T03:43:32.006Z,14.43
2018-09-20T03:44:31.991Z,14.37
2018-09-20T03:45:31.981Z,14.30
2018-09-20T03:46:31.966Z,14.37
2018-09-20T03:47:32.262Z,14.32
2018-09-20T03:48:31.982Z,14.26
2018-09-20T03:49:31.936Z,14.32
2018-09-20T03:50:31.978Z,14.33
2018-09-20T03:51:31.926Z,14.33
2018-09-20T03:52:31.903Z,14.36
2018-09-20T03:53:31.891Z,14.32
2018-09-20T03:54:31.887Z,14.35
2018-09-20T03:55:31.876Z,14.26
2018-09-20T03:56:31.858Z,14.40
2018-09-20T03:57:31.846Z,14.41
2018-09-20T03:58:31.833Z,14.40
2018-09-20T03:59:31.840Z,14.44
2018-09-20T04:00:31.818Z,14.40
2018-09-20T04:01:31.813Z,14.40
2018-09-20T04:02:31.790Z,14.37
2018-09-20T04:03:31.797Z,14.28
2018-09-20T04:04:31.774Z,14.36
2018-09-20T04:05:31.755Z,14.33
2018-09-20T04:06:31.749Z,14.35
2018-09-20T04:07:31.748Z,14.32
2018-09-20T04:08:31.724Z,14.32
2018-09-20T04:09:31.732Z,14.33
2018-09-20T04:10:31.857Z,14.32
2018-09-20T04:11:31.954Z,14.28
2018-09-20T04:12:31.678Z,14.29
2018-09-20T04:13:32.000Z,14.25
2018-09-20T04:14:31.656Z,14.33
2018-09-20T04:15:31.645Z,14.26
2018-09-20T04:16:31.638Z,14.25
2018-09-20T04:17:32.011Z,14.22
2018-09-20T04:18:31.640Z,14.26
2018-09-20T04:19:31.604Z,14.28
2018-09-20T04:20:31.590Z,14.23
2018-09-20T04:21:31.592Z,14.29
2018-09-20T04:22:31.840Z,14.20
2018-09-20T04:23:31.577Z,14.23
2018-09-20T04:24:31.544Z,14.29
2018-09-20T04:25:31.537Z,14.25
2018-09-20T04:26:31.607Z,14.36
2018-09-20T04:27:31.531Z,14.36
2018-09-20T04:28:31.508Z,14.30
2018-09-20T04:29:31.493Z,14.29
2018-09-20T04:30:31.485Z,14.30
2018-09-20T04:31:31.500Z,14.32
2018-09-20T04:32:31.457Z,14.28
2018-09-20T04:33:31.462Z,14.33
2018-09-20T04:34:31.696Z,14.33
2018-09-20T04:35:31.422Z,14.37
2018-09-20T04:36:31.426Z,14.35
2018-09-20T04:37:31.411Z,14.35
2018-09-20T04:38:31.407Z,14.35
2018-09-20T04:39:31.638Z,14.30
2018-09-20T04:40:31.639Z,14.28
2018-09-20T04:41:31.378Z,14.26
2018-09-20T04:42:31.351Z,14.23
2018-09-20T04:43:31.738Z,14.22
2018-09-20T04:44:31.329Z,14.29
2018-09-20T04:45:31.363Z,14.23
2018-09-20T04:46:31.312Z,14.23
2018-09-20T04:47:31.299Z,14.14
2018-09-20T04:48:31.282Z,14.15
2018-09-20T04:49:31.272Z,14.14
2018-09-20T04:50:31.259Z,14.17
2018-09-20T04:51:31.261Z,14.26
2018-09-20T04:52:31.253Z,14.26
2018-09-20T04:53:31.349Z,14.23
2018-09-20T04:54:31.219Z,14.22
2018-09-20T04:55:31.206Z,14.22
2018-09-20T04:56:31.507Z,14.28
2018-09-20T04:57:31.181Z,14.14
2018-09-20T04:58:31.451Z,14.11
2018-09-20T04:59:31.159Z,14.12
2018-09-20T05:00:31.267Z,14.10
2018-09-20T05:01:31.138Z,14.10
2018-09-20T05:02:31.141Z,14.18
2018-09-20T05:03:31.274Z,14.15
2018-09-20T05:04:31.113Z,14.15
2018-09-20T05:05:31.205Z,14.14
2018-09-20T05:06:31.090Z,14.07
2018-09-20T05:07:31.171Z,14.12
2018-09-20T05:08:31.192Z,14.08
2018-09-20T05:09:31.453Z,14.11
2018-09-20T05:10:31.039Z,14.10
2018-09-20T05:11:31.075Z,14.12
2018-09-20T05:12:31.019Z,14.10
2018-09-20T05:13:31.012Z,14.12
2018-09-20T05:14:31.269Z,14.11
2018-09-20T05:15:30.993Z,14.12
2018-09-20T05:16:30.981Z,14.15
2018-09-20T05:17:30.972Z,14.11
2018-09-20T05:18:30.964Z,14.12
2018-09-20T05:19:30.945Z,14.11
2018-09-20T05:20:31.322Z,14.15
2018-09-20T05:21:31.039Z,14.12
2018-09-20T05:22:31.024Z,14.20
2018-09-20T05:23:31.893Z,14.22
2018-09-20T05:24:31.007Z,14.26
2018-09-20T05:25:31.025Z,14.23
2018-09-20T05:26:31.148Z,14.25
2018-09-20T05:27:30.871Z,14.23
2018-09-20T05:28:31.056Z,14.33
2018-09-20T05:29:30.834Z,14.26
2018-09-20T05:30:30.839Z,14.23
2018-09-20T05:31:30.819Z,14.26
2018-09-20T05:32:30.797Z,14.37
2018-09-20T05:33:31.218Z,14.33
2018-09-20T05:34:31.043Z,14.33
2018-09-20T05:35:30.854Z,14.32
2018-09-20T05:36:30.795Z,14.29
2018-09-20T05:37:30.744Z,14.30
2018-09-20T05:38:30.733Z,14.32
2018-09-20T05:39:30.718Z,14.25
2018-09-20T05:40:30.708Z,14.33
2018-09-20T05:41:31.050Z,14.36
2018-09-20T05:42:30.700Z,14.28
2018-09-20T05:43:30.774Z,14.32
2018-09-20T05:44:30.663Z,14.41
2018-09-20T05:45:30.653Z,14.53
2018-09-20T05:46:30.639Z,14.53
2018-09-20T05:47:30.759Z,14.54
2018-09-20T05:48:30.681Z,14.65
2018-09-20T05:49:30.886Z,14.70
2018-09-20T05:50:30.604Z,14.65
2018-09-20T05:51:30.788Z,14.69
2018-09-20T05:52:30.607Z,14.78
2018-09-20T05:53:30.679Z,14.68
2018-09-20T05:54:30.553Z,14.72
2018-09-20T05:55:30.576Z,14.70
2018-09-20T05:56:30.796Z,14.78
2018-09-20T05:57:30.523Z,14.88
2018-09-20T05:58:30.772Z,14.84
2018-09-20T05:59:30.495Z,14.86
2018-09-20T06:00:31.076Z,14.92
2018-09-20T06:01:30.483Z,14.99
2018-09-20T06:02:32.327Z,14.99
2018-09-20T06:03:30.451Z,14.97
2018-09-20T06:04:30.445Z,15.07
2018-09-20T06:05:30.456Z,15.03
2018-09-20T06:06:30.433Z,15.06
2018-09-20T06:07:30.678Z,15.07
2018-09-20T06:08:30.663Z,15.03
2018-09-20T06:09:30.393Z,15.27
2018-09-20T06:10:30.379Z,15.22
2018-09-20T06:11:30.370Z,15.33
2018-09-20T06:12:30.364Z,15.36
2018-09-20T06:13:30.359Z,15.43
2018-09-20T06:14:30.338Z,15.40
2018-09-20T06:15:30.353Z,15.52
2018-09-20T06:16:30.586Z,15.47
2018-09-20T06:17:30.319Z,15.67
2018-09-20T06:18:30.426Z,15.67
2018-09-20T06:19:30.282Z,15.72
2018-09-20T06:20:30.297Z,15.75
2018-09-20T06:21:30.572Z,15.75
2018-09-20T06:22:30.302Z,15.76
2018-09-20T06:23:30.247Z,15.76
2018-09-20T06:24:30.233Z,15.82
2018-09-20T06:25:30.228Z,15.82
2018-09-20T06:26:30.227Z,15.91
2018-09-20T06:27:30.235Z,15.92
2018-09-20T06:28:30.203Z,15.86
2018-09-20T06:29:30.170Z,16.00
2018-09-20T06:30:30.181Z,15.98
2018-09-20T06:31:30.173Z,16.05
2018-09-20T06:32:30.397Z,16.04
2018-09-20T06:33:30.733Z,16.09
2018-09-20T06:34:30.404Z,16.23
2018-09-20T06:35:30.116Z,16.08
2018-09-20T06:36:30.100Z,16.15
2018-09-20T06:37:30.113Z,16.16
2018-09-20T06:38:30.075Z,16.21
2018-09-20T06:39:30.064Z,16.23
2018-09-20T06:40:30.066Z,16.21
2018-09-20T06:41:30.091Z,16.28
2018-09-20T06:42:30.058Z,16.28
2018-09-20T06:43:30.089Z,16.33
2018-09-20T06:44:30.004Z,16.32
2018-09-20T06:45:29.993Z,16.36
2018-09-20T06:46:29.978Z,16.39
2018-09-20T06:47:30.136Z,16.42
2018-09-20T06:48:30.249Z,16.47
2018-09-20T06:49:30.344Z,16.51
2018-09-20T06:50:30.002Z,16.57
2018-09-20T06:51:29.928Z,16.54
2018-09-20T06:52:29.920Z,16.60
2018-09-20T06:53:30.169Z,16.75
2018-09-20T06:54:29.910Z,16.76
2018-09-20T06:55:29.891Z,16.74
2018-09-20T06:56:29.932Z,16.75
2018-09-20T06:57:29.884Z,16.84
2018-09-20T06:58:30.107Z,16.87
2018-09-20T06:59:30.023Z,16.89
2018-09-20T07:00:30.669Z,16.94
2018-09-20T07:01:29.813Z,16.89
2018-09-20T07:02:29.812Z,17.09
2018-09-20T07:03:29.792Z,17.14
2018-09-20T07:04:29.799Z,17.14
2018-09-20T07:05:29.770Z,17.14
2018-09-20T07:06:29.781Z,17.19
2018-09-20T07:07:29.747Z,17.24
2018-09-20T07:08:29.758Z,17.31
2018-09-20T07:09:29.779Z,17.22
2018-09-20T07:10:29.976Z,17.33
2018-09-20T07:11:29.707Z,17.39
2018-09-20T07:12:29.709Z,17.36
2018-09-20T07:13:29.973Z,17.45
2018-09-20T07:14:29.927Z,17.42
2018-09-20T07:15:29.667Z,17.51
2018-09-20T07:16:29.656Z,17.46
2018-09-20T07:17:29.645Z,17.60
2018-09-20T07:18:29.889Z,17.65
2018-09-20T07:19:29.635Z,17.67
2018-09-20T07:20:29.907Z,17.78
2018-09-20T07:21:29.876Z,17.79
2018-09-20T07:22:29.655Z,17.82
2018-09-20T07:23:29.758Z,18.01
2018-09-20T07:24:29.578Z,17.98
2018-09-20T07:25:29.648Z,18.01
2018-09-20T07:26:29.539Z,18.13
2018-09-20T07:27:29.539Z,18.11
2018-09-20T07:28:29.521Z,18.07
2018-09-20T07:29:29.512Z,18.05
2018-09-20T07:30:33.956Z,18.08
2018-09-20T07:31:29.506Z,18.10
2018-09-20T07:32:29.482Z,18.13
2018-09-20T07:33:29.469Z,18.18
2018-09-20T07:34:29.475Z,18.34
2018-09-20T07:35:29.439Z,18.28
2018-09-20T07:36:31.905Z,18.38
2018-09-20T07:37:29.422Z,18.37
2018-09-20T07:38:29.494Z,18.40
2018-09-20T07:39:29.406Z,18.40
2018-09-20T07:40:29.647Z,18.53
2018-09-20T07:41:29.372Z,18.55
2018-09-20T07:42:29.368Z,18.60
2018-09-20T07:43:29.383Z,18.62
2018-09-20T07:44:29.351Z,18.62
2018-09-20T07:45:29.344Z,18.75
2018-09-20T07:46:29.317Z,18.78
2018-09-20T07:47:29.311Z,18.80
2018-09-20T07:48:29.300Z,18.81
2018-09-20T07:49:29.295Z,18.98
2018-09-20T07:50:29.532Z,19.07
2018-09-20T07:51:29.266Z,18.99
2018-09-20T07:52:29.252Z,19.07
2018-09-20T07:53:29.244Z,19.19
2018-09-20T07:54:29.554Z,19.22
2018-09-20T07:55:29.365Z,19.31
2018-09-20T07:56:29.232Z,19.54
2018-09-20T07:57:29.238Z,19.55
2018-09-20T07:58:29.193Z,19.59
2018-09-20T07:59:29.171Z,19.59
2018-09-20T08:00:29.429Z,19.62
2018-09-20T08:01:29.438Z,19.59
2018-09-20T08:02:29.142Z,19.70
2018-09-20T08:03:29.396Z,19.82
2018-09-20T08:04:29.391Z,19.79
2018-09-20T08:05:29.118Z,19.81
2018-09-20T08:06:29.105Z,19.91
2018-09-20T08:07:29.250Z,19.91
2018-09-20T08:08:29.154Z,19.95
2018-09-20T08:09:29.064Z,20.00
2018-09-20T08:10:29.323Z,20.07
2018-09-20T08:11:29.037Z,20.14
2018-09-20T08:12:29.033Z,20.16
2018-09-20T08:13:30.944Z,20.18
2018-09-20T08:14:29.011Z,20.22
2018-09-20T08:15:28.999Z,20.29
2018-09-20T08:16:29.004Z,20.31
2018-09-20T08:17:29.016Z,20.44
2018-09-20T08:18:29.241Z,20.51
2018-09-20T08:19:28.995Z,20.55
2018-09-20T08:20:29.000Z,20.59
2018-09-20T08:21:28.948Z,20.60
2018-09-20T08:22:28.923Z,20.70
2018-09-20T08:23:28.926Z,20.72
2018-09-20T08:24:28.901Z,20.78
2018-09-20T08:25:29.190Z,20.78
2018-09-20T08:26:28.892Z,20.85
2018-09-20T08:27:29.145Z,20.84
2018-09-20T08:28:28.868Z,20.92
2018-09-20T08:29:28.857Z,20.95
2018-09-20T08:30:28.828Z,20.96
2018-09-20T08:31:28.840Z,20.99
2018-09-20T08:32:28.810Z,20.97
2018-09-20T08:33:28.828Z,21.03
2018-09-20T08:34:28.819Z,21.07
2018-09-20T08:35:28.865Z,21.12
2018-09-20T08:36:28.786Z,21.20
2018-09-20T08:37:28.837Z,21.20
2018-09-20T08:38:29.021Z,21.12
2018-09-20T08:39:28.755Z,21.20
2018-09-20T08:40:28.770Z,21.21
2018-09-20T08:41:28.725Z,21.37
2018-09-20T08:42:28.729Z,21.32
2018-09-20T08:43:28.953Z,21.35
2018-09-20T08:44:28.687Z,21.32
2018-09-20T08:45:28.683Z,21.36
2018-09-20T08:46:28.662Z,21.42
2018-09-20T08:47:28.659Z,21.43
2018-09-20T08:48:28.635Z,21.50
2018-09-20T08:49:28.644Z,21.61
2018-09-20T08:50:28.611Z,21.58
2018-09-20T08:51:28.601Z,21.64
2018-09-20T08:52:28.611Z,21.57
2018-09-20T08:53:28.925Z,21.72
2018-09-20T08:54:28.584Z,21.77
2018-09-20T08:55:28.581Z,21.79
2018-09-20T08:56:28.771Z,21.73
2018-09-20T08:57:28.736Z,21.93
2018-09-20T08:58:28.558Z,22.10
2018-09-20T08:59:28.511Z,22.14
2018-09-20T09:00:31.103Z,22.26
2018-09-20T09:01:28.493Z,22.48
2018-09-20T09:02:30.480Z,22.48
2018-09-20T09:03:28.473Z,22.59
2018-09-20T09:04:28.514Z,22.65
2018-09-20T09:05:28.990Z,22.66
2018-09-20T09:06:28.432Z,22.76
2018-09-20T09:07:28.438Z,22.94
2018-09-20T09:08:28.432Z,23.06
2018-09-20T09:09:28.438Z,23.17
2018-09-20T09:10:28.394Z,23.24
2018-09-20T09:11:28.647Z,23.34
2018-09-20T09:12:28.377Z,23.34
2018-09-20T09:13:28.448Z,23.36
2018-09-20T09:14:28.355Z,23.40
2018-09-20T09:15:28.374Z,23.51
2018-09-20T09:16:28.327Z,23.62
2018-09-20T09:17:28.323Z,23.61
2018-09-20T09:18:28.332Z,23.61
2018-09-20T09:19:28.302Z,23.78
2018-09-20T09:20:28.555Z,23.86
2018-09-20T09:21:28.544Z,23.88
2018-09-20T09:22:28.272Z,24.01
2018-09-20T09:23:28.242Z,23.95
2018-09-20T09:24:28.244Z,23.92
2018-09-20T09:25:28.231Z,23.92
2018-09-20T09:26:28.252Z,23.88
2018-09-20T09:27:28.204Z,23.92
2018-09-20T09:28:28.213Z,23.84
2018-09-20T09:29:28.194Z,23.76
2018-09-20T09:30:28.232Z,23.71
2018-09-20T09:31:28.169Z,23.83
2018-09-20T09:32:28.199Z,23.71
2018-09-20T09:33:28.408Z,23.74
2018-09-20T09:34:28.156Z,23.83
2018-09-20T09:35:28.129Z,23.84
2018-09-20T09:36:28.181Z,23.78
2018-09-20T09:37:28.159Z,23.71
2018-09-20T09:38:28.084Z,23.58
2018-09-20T09:39:28.078Z,23.65
2018-09-20T09:40:28.327Z,23.56
2018-09-20T09:41:28.371Z,23.48
2018-09-20T09:42:28.046Z,23.47
2018-09-20T09:43:28.033Z,23.41
2018-09-20T09:44:28.022Z,23.44
2018-09-20T09:45:28.136Z,23.44
2018-09-20T09:46:28.002Z,23.59
2018-09-20T09:47:27.988Z,23.61
2018-09-20T09:48:27.977Z,23.65
2018-09-20T09:49:27.985Z,23.56
2018-09-20T09:50:32.047Z,23.63
2018-09-20T09:51:27.947Z,23.58
2018-09-20T09:52:27.934Z,23.65
2018-09-20T09:53:27.945Z,23.63
2018-09-20T09:54:28.007Z,23.61
2018-09-20T09:55:27.896Z,23.63
2018-09-20T09:56:27.924Z,23.58
2018-09-20T09:57:28.143Z,23.65
2018-09-20T09:58:27.867Z,23.59
2018-09-20T09:59:27.911Z,23.59
2018-09-20T10:00:27.865Z,23.73
2018-09-20T10:01:27.850Z,23.61
2018-09-20T10:02:27.875Z,23.61
2018-09-20T10:03:27.955Z,23.55
2018-09-20T10:04:27.794Z,23.51
2018-09-20T10:05:27.789Z,23.47
2018-09-20T10:06:27.787Z,23.54
2018-09-20T10:07:28.110Z,23.61
2018-09-20T10:08:28.145Z,23.58
2018-09-20T10:09:27.753Z,23.63
2018-09-20T10:10:27.749Z,23.66
2018-09-20T10:11:27.731Z,23.87
2018-09-20T10:12:27.727Z,23.71
2018-09-20T10:13:27.878Z,23.95
2018-09-20T10:14:27.728Z,23.99
2018-09-20T10:15:27.994Z,24.06
2018-09-20T10:16:27.676Z,24.06
2018-09-20T10:17:27.681Z,24.16
2018-09-20T10:18:27.657Z,24.14
2018-09-20T10:19:27.640Z,24.21
2018-09-20T10:20:27.651Z,24.29
2018-09-20T10:21:27.637Z,24.33
2018-09-20T10:22:27.619Z,24.42
2018-09-20T10:23:27.609Z,24.50
2018-09-20T10:24:27.586Z,24.55
2018-09-20T10:25:27.573Z,24.57
2018-09-20T10:26:28.045Z,24.65
2018-09-20T10:27:27.548Z,24.69
2018-09-20T10:28:28.184Z,24.81
2018-09-20T10:29:27.525Z,24.74
2018-09-20T10:30:27.531Z,24.86
2018-09-20T10:31:27.558Z,24.89
2018-09-20T10:32:27.519Z,24.93
2018-09-20T10:33:27.492Z,24.96
2018-09-20T10:34:27.521Z,24.98
2018-09-20T10:35:27.481Z,24.99
2018-09-20T10:36:27.499Z,25.01
2018-09-20T10:37:27.580Z,25.06
2018-09-20T10:38:27.432Z,25.16
2018-09-20T10:39:27.449Z,25.13
2018-09-20T10:40:27.437Z,25.18
2018-09-20T10:41:27.471Z,25.17
2018-09-20T10:42:27.389Z,25.18
2018-09-20T10:43:27.583Z,25.18
2018-09-20T10:44:27.390Z,25.23
2018-09-20T10:45:27.702Z,25.32
2018-09-20T10:46:27.655Z,25.31
2018-09-20T10:47:27.329Z,25.25
2018-09-20T10:48:27.336Z,25.25
2018-09-20T10:49:27.347Z,25.32
2018-09-20T10:50:27.337Z,25.35
2018-09-20T10:51:27.384Z,25.43
2018-09-20T10:52:27.550Z,25.44
2018-09-20T10:53:27.268Z,25.50
2018-09-20T10:54:27.288Z,25.46
2018-09-20T10:55:27.281Z,25.48
2018-09-20T10:56:28.148Z,25.53
2018-09-20T10:57:27.499Z,25.53
2018-09-20T10:58:27.231Z,25.55
2018-09-20T10:59:27.216Z,25.58
2018-09-20T11:00:27.198Z,25.58
2018-09-20T11:01:27.291Z,25.58
2018-09-20T11:02:27.209Z,25.63
2018-09-20T11:03:27.182Z,25.68
2018-09-20T11:04:28.161Z,25.62
2018-09-20T11:05:27.409Z,25.68
2018-09-20T11:06:27.144Z,25.72
2018-09-20T11:07:27.119Z,25.72
2018-09-20T11:08:27.395Z,25.72
2018-09-20T11:09:27.098Z,25.88
2018-09-20T11:10:27.114Z,25.87
2018-09-20T11:11:27.169Z,25.84
2018-09-20T11:12:27.066Z,25.93
2018-09-20T11:13:27.049Z,25.88
2018-09-20T11:14:27.044Z,25.98
2018-09-20T11:15:27.410Z,26.00
2018-09-20T11:16:27.018Z,26.02
2018-09-20T11:17:27.275Z,26.03
2018-09-20T11:18:26.996Z,26.05
2018-09-20T11:19:26.997Z,26.09
2018-09-20T11:20:26.974Z,26.09
2018-09-20T11:21:30.114Z,26.07
2018-09-20T11:22:26.986Z,26.18
2018-09-20T11:23:26.938Z,26.09
2018-09-20T11:24:26.946Z,26.18
2018-09-20T11:25:27.206Z,26.10
2018-09-20T11:26:26.922Z,26.06
2018-09-20T11:27:26.968Z,26.18
2018-09-20T11:28:27.159Z,26.09
2018-09-20T11:29:26.882Z,26.03
2018-09-20T11:30:36.131Z,26.02
2018-09-20T11:31:26.853Z,26.09
2018-09-20T11:32:26.841Z,26.00
2018-09-20T11:33:27.503Z,26.03
2018-09-20T11:34:26.827Z,25.87
2018-09-20T11:35:26.814Z,25.91
2018-09-20T11:36:26.884Z,25.95
2018-09-20T11:37:26.808Z,25.95
2018-09-20T11:38:27.307Z,26.00
2018-09-20T11:39:26.784Z,25.99
2018-09-20T11:40:26.875Z,26.03
2018-09-20T11:41:26.764Z,26.09
2018-09-20T11:42:26.741Z,26.13
2018-09-20T11:43:26.729Z,26.16
2018-09-20T11:44:26.712Z,26.10
2018-09-20T11:45:26.717Z,26.19
2018-09-20T11:46:26.731Z,26.13
2018-09-20T11:47:26.680Z,26.28
2018-09-20T11:48:26.681Z,26.18
2018-09-20T11:49:26.679Z,26.21
2018-09-20T11:50:26.910Z,26.19
2018-09-20T11:51:26.631Z,26.05
2018-09-20T11:52:26.699Z,26.10
2018-09-20T11:53:26.630Z,26.06
2018-09-20T11:54:26.636Z,26.07
2018-09-20T11:55:27.362Z,26.09
2018-09-20T11:56:26.921Z,26.05
2018-09-20T11:57:26.624Z,26.15
2018-09-20T11:58:26.564Z,26.10
2018-09-20T11:59:26.696Z,26.23
2018-09-20T12:00:27.796Z,26.28
2018-09-20T12:01:27.143Z,26.10
2018-09-20T12:02:26.515Z,26.19
2018-09-20T12:03:26.543Z,26.25
2018-09-20T12:04:26.499Z,26.31
2018-09-20T12:05:26.489Z,26.28
2018-09-20T12:06:26.485Z,26.16
2018-09-20T12:07:26.467Z,26.19
2018-09-20T12:08:26.466Z,26.15
2018-09-20T12:09:26.437Z,26.15
2018-09-20T12:10:26.433Z,26.25
2018-09-20T12:11:26.427Z,26.18
2018-09-20T12:12:26.437Z,26.25
2018-09-20T12:13:26.410Z,26.25
2018-09-20T12:14:26.456Z,26.19
2018-09-20T12:15:29.693Z,26.18
2018-09-20T12:16:26.359Z,26.13
2018-09-20T12:17:26.359Z,26.28
2018-09-20T12:18:26.356Z,26.26
2018-09-20T12:19:26.393Z,26.26
2018-09-20T12:20:26.325Z,26.25
2018-09-20T12:21:26.313Z,26.25
2018-09-20T12:22:26.315Z,26.23
2018-09-20T12:23:26.288Z,26.36
2018-09-20T12:24:26.395Z,26.26
2018-09-20T12:25:26.400Z,26.19
2018-09-20T12:26:26.338Z,26.33
2018-09-20T12:27:26.244Z,26.25
2018-09-20T12:28:26.271Z,26.26
2018-09-20T12:29:26.232Z,26.33
2018-09-20T12:30:26.479Z,26.23
2018-09-20T12:31:26.241Z,26.25
2018-09-20T12:32:26.191Z,26.28
2018-09-20T12:33:26.205Z,26.25
2018-09-20T12:34:26.167Z,26.23
2018-09-20T12:35:26.187Z,26.23
2018-09-20T12:36:26.185Z,26.25
2018-09-20T12:37:26.135Z,26.25
2018-09-20T12:38:26.137Z,26.29
2018-09-20T12:39:26.108Z,26.28
2018-09-20T12:40:26.109Z,26.25
2018-09-20T12:41:26.108Z,26.23
2018-09-20T12:42:26.490Z,26.23
2018-09-20T12:43:26.082Z,26.40
2018-09-20T12:44:26.052Z,26.34
2018-09-20T12:45:28.039Z,26.41
2018-09-20T12:46:26.104Z,26.38
2018-09-20T12:47:26.036Z,26.40
2018-09-20T12:48:26.033Z,26.34
2018-09-20T12:49:26.000Z,26.40
2018-09-20T12:50:25.994Z,26.40
2018-09-20T12:51:26.000Z,26.33
2018-09-20T12:52:25.986Z,26.38